sensor_id;sensor_type;location;lat;lon;timestamp;pressure;altitude;pressure_sealevel;temperature;humidity
61086;BME280;46967;48.876;2.136;2023-02-18T00:01:15;102668.72;;;12.15;88.50
61086;BME280;46967;48.876;2.136;2023-02-18T00:03:41;102664.41;;;12.12;88.04
61086;BME280;46967;48.876;2.136;2023-02-18T00:08:42;102662.69;;;12.04;88.68
61086;BME280;46967;48.876;2.136;2023-02-18T00:11:08;102665.34;;;12.02;89.02
61086;BME280;46967;48.876;2.136;2023-02-18T00:13:33;102668.81;;;12.03;88.67
61086;BME280;46967;48.876;2.136;2023-02-18T00:16:07;102674.84;;;12.06;88.79
61086;BME280;46967;48.876;2.136;2023-02-18T00:18:33;102667.06;;;12.00;89.26
61086;BME280;46967;48.876;2.136;2023-02-18T00:20:58;102661.84;;;12.06;89.16
61086;BME280;46967;48.876;2.136;2023-02-18T00:23:24;102668.78;;;12.07;88.80
61086;BME280;46967;48.876;2.136;2023-02-18T00:25:58;102666.22;;;11.98;89.24
61086;BME280;46967;48.876;2.136;2023-02-18T00:28:24;102666.22;;;11.96;89.27
61086;BME280;46967;48.876;2.136;2023-02-18T00:30:49;102657.50;;;12.04;89.07
61086;BME280;46967;48.876;2.136;2023-02-18T00:33:15;102660.94;;;12.12;88.16
61086;BME280;46967;48.876;2.136;2023-02-18T00:35:40;102662.75;;;12.01;88.58
61086;BME280;46967;48.876;2.136;2023-02-18T00:38:05;102666.19;;;12.06;88.81
61086;BME280;46967;48.876;2.136;2023-02-18T00:40:31;102656.72;;;11.92;89.08
61086;BME280;46967;48.876;2.136;2023-02-18T00:42:56;102664.50;;;11.97;89.14
61086;BME280;46967;48.876;2.136;2023-02-18T00:45:21;102665.38;;;11.90;89.23
61086;BME280;46967;48.876;2.136;2023-02-18T00:47:47;102669.72;;;11.94;89.07
61086;BME280;46967;48.876;2.136;2023-02-18T00:50:12;102665.38;;;11.98;89.02
61086;BME280;46967;48.876;2.136;2023-02-18T00:52:37;102667.06;;;12.00;89.15
61086;BME280;46967;48.876;2.136;2023-02-18T00:55:03;102660.09;;;12.04;88.97
61086;BME280;46967;48.876;2.136;2023-02-18T00:57:28;102649.72;;;12.02;89.08
61086;BME280;46967;48.876;2.136;2023-02-18T00:59:54;102654.88;;;12.05;88.80
61086;BME280;46967;48.876;2.136;2023-02-18T01:02:19;102646.19;;;12.09;88.81
61086;BME280;46967;48.876;2.136;2023-02-18T01:04:44;102662.75;;;11.99;89.51
61086;BME280;46967;48.876;2.136;2023-02-18T01:07:10;102650.59;;;12.03;89.35
61086;BME280;46967;48.876;2.136;2023-02-18T01:09:35;102645.31;;;12.12;89.32
61086;BME280;46967;48.876;2.136;2023-02-18T01:12:01;102647.03;;;12.11;89.17
61086;BME280;46967;48.876;2.136;2023-02-18T01:14:27;102654.00;;;12.08;89.67
61086;BME280;46967;48.876;2.136;2023-02-18T01:16:52;102648.81;;;12.09;89.65
61086;BME280;46967;48.876;2.136;2023-02-18T01:19:17;102648.84;;;12.03;89.91
61086;BME280;46967;48.876;2.136;2023-02-18T01:21:42;102655.75;;;12.10;89.30
61086;BME280;46967;48.876;2.136;2023-02-18T01:24:08;102647.16;;;11.96;90.27
61086;BME280;46967;48.876;2.136;2023-02-18T01:26:33;102646.22;;;12.08;89.63
61086;BME280;46967;48.876;2.136;2023-02-18T01:28:58;102641.94;;;11.99;90.26
61086;BME280;46967;48.876;2.136;2023-02-18T01:31:24;102647.16;;;11.99;90.58
61086;BME280;46967;48.876;2.136;2023-02-18T01:33:49;102645.38;;;12.03;90.31
61086;BME280;46967;48.876;2.136;2023-02-18T01:36:16;102640.16;;;12.04;89.82
61086;BME280;46967;48.876;2.136;2023-02-18T01:38:42;102641.06;;;11.97;90.10
61086;BME280;46967;48.876;2.136;2023-02-18T01:41:07;102643.66;;;11.97;90.09
61086;BME280;46967;48.876;2.136;2023-02-18T01:43:33;102638.44;;;12.02;89.79
61086;BME280;46967;48.876;2.136;2023-02-18T01:46:15;102631.56;;;11.93;89.61
61086;BME280;46967;48.876;2.136;2023-02-18T01:54:14;102623.81;;;11.82;88.61
61086;BME280;46967;48.876;2.136;2023-02-18T01:56:45;102624.63;;;11.89;88.12
61086;BME280;46967;48.876;2.136;2023-02-18T01:59:16;102629.81;;;11.93;87.61
61086;BME280;46967;48.876;2.136;2023-02-18T02:01:43;102622.94;;;11.83;88.11
61086;BME280;46967;48.876;2.136;2023-02-18T02:04:10;102620.34;;;11.78;88.38
61086;BME280;46967;48.876;2.136;2023-02-18T02:06:35;102618.56;;;11.88;87.67
61086;BME280;46967;48.876;2.136;2023-02-18T02:09:02;102616.84;;;11.84;86.53
61086;BME280;46967;48.876;2.136;2023-02-18T02:11:44;102602.06;;;11.86;86.08
61086;BME280;46967;48.876;2.136;2023-02-18T02:28:06;102588.31;;;11.67;84.18
61086;BME280;46967;48.876;2.136;2023-02-18T02:42:53;102569.31;;;11.57;82.31
61086;BME280;46967;48.876;2.136;2023-02-18T02:48:09;102571.91;;;11.56;81.88
61086;BME280;46967;48.876;2.136;2023-02-18T02:50:52;102565.03;;;11.50;81.85
61086;BME280;46967;48.876;2.136;2023-02-18T02:53:23;102567.56;;;11.63;81.60
61086;BME280;46967;48.876;2.136;2023-02-18T02:55:50;102565.84;;;11.58;81.58
61086;BME280;46967;48.876;2.136;2023-02-18T02:58:17;102558.91;;;11.56;81.41
61086;BME280;46967;48.876;2.136;2023-02-18T03:06:17;102559.81;;;11.53;81.86
61086;BME280;46967;48.876;2.136;2023-02-18T03:11:30;102564.09;;;11.60;81.64
61086;BME280;46967;48.876;2.136;2023-02-18T03:14:23;102558.94;;;11.54;81.58
61086;BME280;46967;48.876;2.136;2023-02-18T03:17:03;102565.88;;;11.54;81.90
61086;BME280;46967;48.876;2.136;2023-02-18T03:19:38;102558.06;;;11.55;81.61
61086;BME280;46967;48.876;2.136;2023-02-18T03:22:12;102559.78;;;11.61;81.63
61086;BME280;46967;48.876;2.136;2023-02-18T03:24:46;102555.44;;;11.60;81.66
61086;BME280;46967;48.876;2.136;2023-02-18T03:29:45;102553.81;;;11.44;82.96
61086;BME280;46967;48.876;2.136;2023-02-18T03:32:15;102555.44;;;11.58;82.75
61086;BME280;46967;48.876;2.136;2023-02-18T03:34:48;102550.28;;;11.54;82.14
61086;BME280;46967;48.876;2.136;2023-02-18T03:37:14;102546.03;;;11.44;82.61
61086;BME280;46967;48.876;2.136;2023-02-18T03:39:44;102546.88;;;11.42;82.13
61086;BME280;46967;48.876;2.136;2023-02-18T03:42:10;102544.28;;;11.39;81.50
61086;BME280;46967;48.876;2.136;2023-02-18T03:44:36;102541.72;;;11.32;80.81
61086;BME280;46967;48.876;2.136;2023-02-18T03:47:01;102542.59;;;11.32;80.32
61086;BME280;46967;48.876;2.136;2023-02-18T03:49:26;102539.97;;;11.32;80.14
61086;BME280;46967;48.876;2.136;2023-02-18T03:51:52;102548.66;;;11.36;79.77
61086;BME280;46967;48.876;2.136;2023-02-18T03:54:17;102548.63;;;11.42;79.36
61086;BME280;46967;48.876;2.136;2023-02-18T03:56:43;102546.91;;;11.38;79.07
61086;BME280;46967;48.876;2.136;2023-02-18T03:59:10;102544.34;;;11.26;78.83
61086;BME280;46967;48.876;2.136;2023-02-18T04:01:36;102548.72;;;11.25;78.88
61086;BME280;46967;48.876;2.136;2023-02-18T04:04:01;102540.06;;;11.26;78.80
61086;BME280;46967;48.876;2.136;2023-02-18T04:06:27;102548.72;;;11.23;78.73
61086;BME280;46967;48.876;2.136;2023-02-18T04:08:53;102547.84;;;11.26;78.59
61086;BME280;46967;48.876;2.136;2023-02-18T04:11:18;102542.66;;;11.26;78.61
61086;BME280;46967;48.876;2.136;2023-02-18T04:13:44;102556.53;;;11.19;78.76
61086;BME280;46967;48.876;2.136;2023-02-18T04:16:09;102555.63;;;11.28;78.33
61086;BME280;46967;48.876;2.136;2023-02-18T04:18:34;102544.38;;;11.21;78.37
61086;BME280;46967;48.876;2.136;2023-02-18T04:21:00;102550.44;;;11.26;78.24
61086;BME280;46967;48.876;2.136;2023-02-18T04:23:25;102537.50;;;11.12;78.72
61086;BME280;46967;48.876;2.136;2023-02-18T04:25:50;102534.88;;;11.23;78.34
61086;BME280;46967;48.876;2.136;2023-02-18T04:28:16;102540.09;;;11.17;78.53
61086;BME280;46967;48.876;2.136;2023-02-18T04:30:42;102542.69;;;11.18;78.21
61086;BME280;46967;48.876;2.136;2023-02-18T04:33:08;102547.84;;;11.24;78.10
61086;BME280;46967;48.876;2.136;2023-02-18T04:35:33;102537.47;;;11.20;78.21
61086;BME280;46967;48.876;2.136;2023-02-18T04:38:01;102540.91;;;11.23;78.20
61086;BME280;46967;48.876;2.136;2023-02-18T04:40:26;102540.06;;;11.21;77.78
61086;BME280;46967;48.876;2.136;2023-02-18T04:42:55;102539.19;;;11.18;77.68
61086;BME280;46967;48.876;2.136;2023-02-18T04:45:20;102539.28;;;11.05;77.90
61086;BME280;46967;48.876;2.136;2023-02-18T04:47:46;102532.28;;;11.17;77.61
61086;BME280;46967;48.876;2.136;2023-02-18T04:50:11;102536.59;;;11.19;77.68
61086;BME280;46967;48.876;2.136;2023-02-18T04:52:36;102540.09;;;11.17;77.42
61086;BME280;46967;48.876;2.136;2023-02-18T04:55:02;102541.78;;;11.18;77.06
61086;BME280;46967;48.876;2.136;2023-02-18T04:57:27;102530.53;;;11.19;76.30
61086;BME280;46967;48.876;2.136;2023-02-18T04:59:53;102542.69;;;11.15;76.62
61086;BME280;46967;48.876;2.136;2023-02-18T05:02:18;102540.94;;;11.17;76.46
61086;BME280;46967;48.876;2.136;2023-02-18T05:04:43;102540.09;;;11.11;76.76
61086;BME280;46967;48.876;2.136;2023-02-18T05:07:08;102537.53;;;11.08;76.76
61086;BME280;46967;48.876;2.136;2023-02-18T05:09:34;102530.59;;;11.08;76.39
61086;BME280;46967;48.876;2.136;2023-02-18T05:11:59;102545.34;;;11.00;76.77
61086;BME280;46967;48.876;2.136;2023-02-18T05:14:25;102544.47;;;11.05;76.71
61086;BME280;46967;48.876;2.136;2023-02-18T05:16:50;102552.31;;;10.93;76.85
61086;BME280;46967;48.876;2.136;2023-02-18T05:19:16;102548.81;;;10.93;76.97
61086;BME280;46967;48.876;2.136;2023-02-18T05:21:41;102557.50;;;10.96;76.80
61086;BME280;46967;48.876;2.136;2023-02-18T05:24:07;102552.28;;;11.01;76.64
61086;BME280;46967;48.876;2.136;2023-02-18T05:26:33;102560.94;;;11.00;76.92
61086;BME280;46967;48.876;2.136;2023-02-18T05:28:58;102553.16;;;10.97;77.01
61086;BME280;46967;48.876;2.136;2023-02-18T05:31:24;102556.69;;;10.79;77.87
61086;BME280;46967;48.876;2.136;2023-02-18T05:33:49;102542.81;;;10.81;77.88
61086;BME280;46967;48.876;2.136;2023-02-18T05:36:15;102546.28;;;10.82;77.66
61086;BME280;46967;48.876;2.136;2023-02-18T05:38:40;102553.19;;;10.84;77.51
61086;BME280;46967;48.876;2.136;2023-02-18T05:41:05;102551.47;;;10.88;77.34
61086;BME280;46967;48.876;2.136;2023-02-18T05:43:31;102551.47;;;10.85;77.27
61086;BME280;46967;48.876;2.136;2023-02-18T05:46:16;102548.00;;;10.74;77.53
61086;BME280;46967;48.876;2.136;2023-02-18T05:48:41;102542.81;;;10.80;77.45
61086;BME280;46967;48.876;2.136;2023-02-18T05:51:07;102533.28;;;10.83;77.33
61086;BME280;46967;48.876;2.136;2023-02-18T05:53:32;102538.47;;;10.85;77.14
61086;BME280;46967;48.876;2.136;2023-02-18T05:55:57;102539.34;;;10.81;76.88
61086;BME280;46967;48.876;2.136;2023-02-18T05:58:23;102535.88;;;10.90;76.88
61086;BME280;46967;48.876;2.136;2023-02-18T06:00:48;102541.09;;;10.77;76.84
61086;BME280;46967;48.876;2.136;2023-02-18T06:03:14;102538.50;;;10.80;76.88
61086;BME280;46967;48.876;2.136;2023-02-18T06:05:39;102537.59;;;10.83;76.37
61086;BME280;46967;48.876;2.136;2023-02-18T06:08:04;102530.63;;;10.94;76.21
61086;BME280;46967;48.876;2.136;2023-02-18T06:10:29;102528.97;;;10.84;75.71
61086;BME280;46967;48.876;2.136;2023-02-18T06:12:55;102541.97;;;10.72;76.44
61086;BME280;46967;48.876;2.136;2023-02-18T06:15:20;102536.75;;;10.85;76.49
61086;BME280;46967;48.876;2.136;2023-02-18T06:17:45;102545.38;;;10.91;76.58
61086;BME280;46967;48.876;2.136;2023-02-18T06:20:11;102543.69;;;10.85;77.12
61086;BME280;46967;48.876;2.136;2023-02-18T06:22:36;102540.19;;;10.87;77.29
61086;BME280;46967;48.876;2.136;2023-02-18T06:25:02;102541.13;;;10.71;78.08
61086;BME280;46967;48.876;2.136;2023-02-18T06:27:27;102531.56;;;10.84;77.72
61086;BME280;46967;48.876;2.136;2023-02-18T06:29:52;102539.34;;;10.82;77.79
61086;BME280;46967;48.876;2.136;2023-02-18T06:32:18;102533.28;;;10.85;77.91
61086;BME280;46967;48.876;2.136;2023-02-18T06:34:43;102537.63;;;10.78;78.18
61086;BME280;46967;48.876;2.136;2023-02-18T06:37:08;102532.38;;;10.91;77.85
61086;BME280;46967;48.876;2.136;2023-02-18T06:39:34;102528.97;;;10.78;78.31
61086;BME280;46967;48.876;2.136;2023-02-18T06:41:59;102528.94;;;10.85;78.44
61086;BME280;46967;48.876;2.136;2023-02-18T06:44:24;102526.34;;;10.85;78.35
61086;BME280;46967;48.876;2.136;2023-02-18T06:46:50;102534.13;;;10.93;77.90
61086;BME280;46967;48.876;2.136;2023-02-18T06:49:15;102531.53;;;10.85;78.17
61086;BME280;46967;48.876;2.136;2023-02-18T06:51:40;102528.09;;;10.83;78.42
61086;BME280;46967;48.876;2.136;2023-02-18T06:54:07;102525.50;;;10.85;78.19
61086;BME280;46967;48.876;2.136;2023-02-18T06:56:32;102528.09;;;10.90;78.60
61086;BME280;46967;48.876;2.136;2023-02-18T06:58:58;102526.34;;;10.88;78.25
61086;BME280;46967;48.876;2.136;2023-02-18T07:01:23;102538.47;;;10.90;78.28
61086;BME280;46967;48.876;2.136;2023-02-18T07:03:48;102534.16;;;10.82;78.26
61086;BME280;46967;48.876;2.136;2023-02-18T07:06:14;102528.94;;;10.93;77.78
61086;BME280;46967;48.876;2.136;2023-02-18T07:08:39;102533.19;;;11.02;77.25
61086;BME280;46967;48.876;2.136;2023-02-18T07:11:05;102529.75;;;11.00;76.82
61086;BME280;46967;48.876;2.136;2023-02-18T07:13:31;102528.97;;;10.84;77.19
61086;BME280;46967;48.876;2.136;2023-02-18T07:15:56;102539.34;;;10.82;76.89
61086;BME280;46967;48.876;2.136;2023-02-18T07:18:21;102532.41;;;10.80;77.24
61086;BME280;46967;48.876;2.136;2023-02-18T07:20:47;102534.16;;;10.82;77.31
61086;BME280;46967;48.876;2.136;2023-02-18T07:23:12;102535.00;;;10.91;76.87
61086;BME280;46967;48.876;2.136;2023-02-18T07:25:37;102536.72;;;10.90;76.80
61086;BME280;46967;48.876;2.136;2023-02-18T07:28:03;102539.31;;;10.90;76.29
61086;BME280;46967;48.876;2.136;2023-02-18T07:30:28;102541.03;;;10.96;76.28
61086;BME280;46967;48.876;2.136;2023-02-18T07:32:54;102536.72;;;10.90;75.37
61086;BME280;46967;48.876;2.136;2023-02-18T07:35:19;102541.09;;;10.83;75.63
61086;BME280;46967;48.876;2.136;2023-02-18T07:37:46;102536.75;;;10.79;75.98
61086;BME280;46967;48.876;2.136;2023-02-18T07:40:14;102539.34;;;10.79;75.95
61086;BME280;46967;48.876;2.136;2023-02-18T07:42:39;102540.19;;;10.89;75.51
61086;BME280;46967;48.876;2.136;2023-02-18T07:45:05;102538.50;;;10.76;75.04
61086;BME280;46967;48.876;2.136;2023-02-18T07:47:30;102535.00;;;10.80;75.25
61086;BME280;46967;48.876;2.136;2023-02-18T07:49:55;102544.53;;;10.85;75.13
61086;BME280;46967;48.876;2.136;2023-02-18T07:52:21;102539.38;;;10.75;75.65
61086;BME280;46967;48.876;2.136;2023-02-18T07:54:46;102539.34;;;10.84;74.85
61086;BME280;46967;48.876;2.136;2023-02-18T07:57:12;102541.91;;;10.93;74.70
61086;BME280;46967;48.876;2.136;2023-02-18T07:59:37;102535.88;;;10.90;74.72
61086;BME280;46967;48.876;2.136;2023-02-18T08:02:03;102535.81;;;10.97;74.40
61086;BME280;46967;48.876;2.136;2023-02-18T08:04:29;102539.31;;;10.93;74.59
61086;BME280;46967;48.876;2.136;2023-02-18T08:06:55;102549.72;;;10.87;74.78
61086;BME280;46967;48.876;2.136;2023-02-18T08:09:20;102540.19;;;10.86;74.79
61086;BME280;46967;48.876;2.136;2023-02-18T08:11:46;102557.50;;;10.92;74.62
61086;BME280;46967;48.876;2.136;2023-02-18T08:14:11;102558.38;;;10.84;74.63
61086;BME280;46967;48.876;2.136;2023-02-18T08:16:36;102560.97;;;10.86;74.96
61086;BME280;46967;48.876;2.136;2023-02-18T08:19:02;102560.94;;;11.03;74.12
61086;BME280;46967;48.876;2.136;2023-02-18T08:21:28;102558.34;;;10.98;74.05
61086;BME280;46967;48.876;2.136;2023-02-18T08:23:54;102561.81;;;10.94;74.52
61086;BME280;46967;48.876;2.136;2023-02-18T08:26:19;102570.47;;;11.01;74.20
61086;BME280;46967;48.876;2.136;2023-02-18T08:28:46;102567.88;;;10.99;74.16
61086;BME280;46967;48.876;2.136;2023-02-18T08:31:19;102574.78;;;11.02;73.70
61086;BME280;46967;48.876;2.136;2023-02-18T08:33:45;102571.31;;;11.03;73.90
61086;BME280;46967;48.876;2.136;2023-02-18T08:36:11;102578.28;;;10.95;74.15
61086;BME280;46967;48.876;2.136;2023-02-18T08:38:36;102573.09;;;10.88;74.43
61086;BME280;46967;48.876;2.136;2023-02-18T08:41:03;102586.91;;;10.97;73.84
61086;BME280;46967;48.876;2.136;2023-02-18T08:43:29;102587.78;;;10.96;74.45
61086;BME280;46967;48.876;2.136;2023-02-18T08:45:56;102588.63;;;11.09;73.63
61086;BME280;46967;48.876;2.136;2023-02-18T08:48:22;102585.13;;;11.10;73.50
61086;BME280;46967;48.876;2.136;2023-02-18T08:50:47;102582.53;;;11.10;73.83
61086;BME280;46967;48.876;2.136;2023-02-18T08:53:13;102582.56;;;10.99;73.91
61086;BME280;46967;48.876;2.136;2023-02-18T08:55:39;102584.31;;;11.06;73.82
61086;BME280;46967;48.876;2.136;2023-02-18T08:58:05;102578.25;;;11.05;73.89
61086;BME280;46967;48.876;2.136;2023-02-18T09:00:31;102580.88;;;10.99;74.07
61086;BME280;46967;48.876;2.136;2023-02-18T09:02:57;102575.66;;;11.07;73.79
61086;BME280;46967;48.876;2.136;2023-02-18T09:05:22;102572.16;;;11.11;73.76
61086;BME280;46967;48.876;2.136;2023-02-18T09:07:48;102581.66;;;11.15;73.99
61086;BME280;46967;48.876;2.136;2023-02-18T09:10:13;102585.94;;;11.24;73.30
61086;BME280;46967;48.876;2.136;2023-02-18T09:12:38;102585.13;;;11.17;73.58
61086;BME280;46967;48.876;2.136;2023-02-18T09:15:04;102586.84;;;11.21;73.82
61086;BME280;46967;48.876;2.136;2023-02-18T09:17:30;102585.09;;;11.28;73.68
61086;BME280;46967;48.876;2.136;2023-02-18T09:19:55;102583.31;;;11.33;73.31
61086;BME280;46967;48.876;2.136;2023-02-18T09:22:20;102584.16;;;11.35;72.96
61086;BME280;46967;48.876;2.136;2023-02-18T09:24:46;102585.03;;;11.37;73.04
61086;BME280;46967;48.876;2.136;2023-02-18T09:27:11;102591.06;;;11.42;72.95
61086;BME280;46967;48.876;2.136;2023-02-18T09:29:38;102589.34;;;11.41;72.43
61086;BME280;46967;48.876;2.136;2023-02-18T09:32:05;102591.94;;;11.43;72.64
61086;BME280;46967;48.876;2.136;2023-02-18T09:34:31;102592.81;;;11.42;72.74
61086;BME280;46967;48.876;2.136;2023-02-18T09:36:56;102600.63;;;11.40;72.60
61086;BME280;46967;48.876;2.136;2023-02-18T09:39:22;102592.84;;;11.39;72.71
61086;BME280;46967;48.876;2.136;2023-02-18T09:41:50;102593.75;;;11.24;73.44
61086;BME280;46967;48.876;2.136;2023-02-18T09:44:26;102592.84;;;11.34;73.04
61086;BME280;46967;48.876;2.136;2023-02-18T09:49:29;102594.53;;;11.40;73.15
61086;BME280;46967;48.876;2.136;2023-02-18T09:52:04;102589.34;;;11.41;72.53
61086;BME280;46967;48.876;2.136;2023-02-18T09:54:30;102589.28;;;11.52;72.72
61086;BME280;46967;48.876;2.136;2023-02-18T09:56:55;102588.41;;;11.55;72.35
61086;BME280;46967;48.876;2.136;2023-02-18T09:59:21;102595.34;;;11.50;72.78
61086;BME280;46967;48.876;2.136;2023-02-18T10:01:50;102592.75;;;11.53;72.52
61086;BME280;46967;48.876;2.136;2023-02-18T10:04:24;102597.94;;;11.51;72.63
61086;BME280;46967;48.876;2.136;2023-02-18T10:06:52;102597.06;;;11.54;72.68
61086;BME280;46967;48.876;2.136;2023-02-18T10:09:29;102595.41;;;11.47;73.01
61086;BME280;46967;48.876;2.136;2023-02-18T10:12:01;102599.66;;;11.57;72.73
61086;BME280;46967;48.876;2.136;2023-02-18T10:14:32;102591.84;;;11.60;72.57
61086;BME280;46967;48.876;2.136;2023-02-18T10:17:00;102597.13;;;11.46;73.18
61086;BME280;46967;48.876;2.136;2023-02-18T10:19:32;102597.94;;;11.51;72.88
61086;BME280;46967;48.876;2.136;2023-02-18T10:22:01;102602.28;;;11.55;72.40
61086;BME280;46967;48.876;2.136;2023-02-18T10:26:53;102602.28;;;11.55;71.85
61086;BME280;46967;48.876;2.136;2023-02-18T10:29:20;102597.91;;;11.60;71.37
61086;BME280;46967;48.876;2.136;2023-02-18T10:32:07;102602.22;;;11.66;71.61
61086;BME280;46967;48.876;2.136;2023-02-18T10:35:13;102600.47;;;11.68;71.79
61086;BME280;46967;48.876;2.136;2023-02-18T10:38:07;102601.31;;;11.70;71.43
61086;BME280;46967;48.876;2.136;2023-02-18T10:50:41;102609.19;;;11.59;71.27
61086;BME280;46967;48.876;2.136;2023-02-18T10:53:33;102609.06;;;11.76;71.03
61086;BME280;46967;48.876;2.136;2023-02-18T10:55:59;102609.97;;;11.75;70.78
61086;BME280;46967;48.876;2.136;2023-02-18T11:00:56;102594.22;;;12.00;70.66
61086;BME280;46967;48.876;2.136;2023-02-18T11:03:24;102596.00;;;11.93;69.74
61086;BME280;46967;48.876;2.136;2023-02-18T11:05:53;102602.03;;;11.97;69.89
61086;BME280;46967;48.876;2.136;2023-02-18T11:08:28;102606.41;;;11.95;69.56
61086;BME280;46967;48.876;2.136;2023-02-18T11:11:17;102605.56;;;11.88;70.27
61086;BME280;46967;48.876;2.136;2023-02-18T11:13:51;102607.31;;;11.85;70.07
61086;BME280;46967;48.876;2.136;2023-02-18T11:16:21;102607.25;;;11.89;69.90
61086;BME280;46967;48.876;2.136;2023-02-18T11:18:46;102601.25;;;11.81;69.90
61086;BME280;46967;48.876;2.136;2023-02-18T11:21:29;102586.44;;;11.97;69.99
61086;BME280;46967;48.876;2.136;2023-02-18T11:23:56;102594.25;;;11.89;69.45
61086;BME280;46967;48.876;2.136;2023-02-18T11:26:32;102594.22;;;11.97;69.62
61086;BME280;46967;48.876;2.136;2023-02-18T11:29:09;102594.25;;;11.94;69.33
61086;BME280;46967;48.876;2.136;2023-02-18T11:31:44;102592.53;;;11.94;69.75
61086;BME280;46967;48.876;2.136;2023-02-18T11:34:15;102605.53;;;11.98;69.75
61086;BME280;46967;48.876;2.136;2023-02-18T11:36:42;102595.09;;;12.01;69.56
61086;BME280;46967;48.876;2.136;2023-02-18T11:41:47;102596.78;;;12.03;69.88
61086;BME280;46967;48.876;2.136;2023-02-18T11:44:21;102590.69;;;12.09;69.10
61086;BME280;46967;48.876;2.136;2023-02-18T11:49:40;102588.06;;;12.13;69.25
61086;BME280;46967;48.876;2.136;2023-02-18T11:52:16;102580.25;;;12.15;68.88
61086;BME280;46967;48.876;2.136;2023-02-18T11:54:58;102588.97;;;12.06;68.92
61086;BME280;46967;48.876;2.136;2023-02-18T11:57:25;102591.63;;;12.00;69.38
61086;BME280;46967;48.876;2.136;2023-02-18T11:59:51;102588.19;;;11.89;69.58
61086;BME280;46967;48.876;2.136;2023-02-18T12:02:30;102590.78;;;11.89;69.85
61086;BME280;46967;48.876;2.136;2023-02-18T12:05:19;102590.81;;;11.84;70.41
61086;BME280;46967;48.876;2.136;2023-02-18T12:10:47;102575.06;;;12.09;69.58
61086;BME280;46967;48.876;2.136;2023-02-18T12:29:12;102546.38;;;12.18;69.31
61086;BME280;46967;48.876;2.136;2023-02-18T12:37:26;102539.25;;;12.39;68.65
61086;BME280;46967;48.876;2.136;2023-02-18T12:40:17;102540.09;;;12.39;68.81
61086;BME280;46967;48.876;2.136;2023-02-18T12:48:19;102534.72;;;12.56;68.24
61086;BME280;46967;48.876;2.136;2023-02-18T12:53:51;102532.16;;;12.52;68.08
61086;BME280;46967;48.876;2.136;2023-02-18T13:02:23;102520.22;;;12.30;68.14
61086;BME280;46967;48.876;2.136;2023-02-18T13:05:11;102518.56;;;12.23;68.62
61086;BME280;46967;48.876;2.136;2023-02-18T13:10:25;102516.91;;;12.13;69.22
61086;BME280;46967;48.876;2.136;2023-02-18T13:13:03;102513.47;;;12.09;69.47
61086;BME280;46967;48.876;2.136;2023-02-18T13:18:00;102504.72;;;12.18;69.54
61086;BME280;46967;48.876;2.136;2023-02-18T13:20:44;102505.66;;;12.11;69.37
61086;BME280;46967;48.876;2.136;2023-02-18T13:23:20;102497.91;;;12.05;70.00
61086;BME280;46967;48.876;2.136;2023-02-18T13:25:50;102500.50;;;12.03;70.27
61086;BME280;46967;48.876;2.136;2023-02-18T13:28:33;102490.97;;;12.04;69.97
61086;BME280;46967;48.876;2.136;2023-02-18T13:33:39;102491.88;;;12.01;70.26
61086;BME280;46967;48.876;2.136;2023-02-18T13:41:18;102492.63;;;12.12;69.92
61086;BME280;46967;48.876;2.136;2023-02-18T13:43:44;102495.09;;;12.28;69.82
61086;BME280;46967;48.876;2.136;2023-02-18T13:46:21;102491.47;;;12.41;69.29
61086;BME280;46967;48.876;2.136;2023-02-18T13:48:54;102494.19;;;12.30;69.50
61086;BME280;46967;48.876;2.136;2023-02-18T13:51:31;102487.16;;;12.39;69.24
61086;BME280;46967;48.876;2.136;2023-02-18T13:59:41;102477.50;;;12.50;69.43
61086;BME280;46967;48.876;2.136;2023-02-18T14:10:06;102485.44;;;12.36;70.14
61086;BME280;46967;48.876;2.136;2023-02-18T14:23:11;102470.09;;;12.08;71.56
61086;BME280;46967;48.876;2.136;2023-02-18T14:25:39;102474.47;;;12.06;71.85
61086;BME280;46967;48.876;2.136;2023-02-18T14:33:40;102476.25;;;12.03;72.40
61086;BME280;46967;48.876;2.136;2023-02-18T14:44:28;102466.75;;;11.95;73.10
61086;BME280;46967;48.876;2.136;2023-02-18T14:49:36;102467.41;;;12.19;72.37
61086;BME280;46967;48.876;2.136;2023-02-18T14:52:05;102448.38;;;12.12;72.37
61086;BME280;46967;48.876;2.136;2023-02-18T14:54:37;102452.81;;;12.03;72.88
61086;BME280;46967;48.876;2.136;2023-02-18T14:57:13;102452.59;;;12.24;72.18
61086;BME280;46967;48.876;2.136;2023-02-18T14:59:41;102443.88;;;12.28;71.60
61086;BME280;46967;48.876;2.136;2023-02-18T15:02:17;102432.41;;;12.45;71.05
61086;BME280;46967;48.876;2.136;2023-02-18T15:04:43;102426.28;;;12.49;71.23
61086;BME280;46967;48.876;2.136;2023-02-18T15:07:10;102429.59;;;12.62;71.05
61086;BME280;46967;48.876;2.136;2023-02-18T15:09:44;102433.25;;;12.48;71.23
61086;BME280;46967;48.876;2.136;2023-02-18T15:12:14;102425.19;;;12.67;70.96
61086;BME280;46967;48.876;2.136;2023-02-18T15:14:42;102419.97;;;12.67;70.82
61086;BME280;46967;48.876;2.136;2023-02-18T15:17:27;102419.09;;;12.69;70.72
61086;BME280;46967;48.876;2.136;2023-02-18T15:19:55;102412.84;;;12.81;70.69
61086;BME280;46967;48.876;2.136;2023-02-18T15:22:25;102418.13;;;12.78;70.86
61086;BME280;46967;48.876;2.136;2023-02-18T15:24:55;102408.72;;;12.65;70.64
61086;BME280;46967;48.876;2.136;2023-02-18T15:27:24;102408.97;;;12.45;72.00
61086;BME280;46967;48.876;2.136;2023-02-18T15:29:53;102408.94;;;12.46;72.06
61086;BME280;46967;48.876;2.136;2023-02-18T15:32:24;102406.84;;;12.76;70.94
61086;BME280;46967;48.876;2.136;2023-02-18T15:34:56;102408.06;;;13.11;69.92
61086;BME280;46967;48.876;2.136;2023-02-18T15:37:22;102402.13;;;13.03;69.31
61086;BME280;46967;48.876;2.136;2023-02-18T15:39:48;102408.22;;;13.00;69.76